Allenhurst, New Jersey
Current Conditions -  °F | °C
As of 11:55 PM on Wednesday 22 Oct 2014 (Local Time) from KBLM Reporting Station
Overcast Overcast  
Wind Chill: 52°   Ceiling: 1900
Heat Index: 52°   Visibility: 10mi
Dew Point: 45°   Wind: 16mph
Humidity: 76%   Direction: 350°N
Pressure: 29.71"   Gusts: 22mph
Location:  40.24°N, 74°W
Report Text: KBLM 230355Z AUTO 35014G19KT 10SM SCT012 OVC019 11/07 A2971 RMK AO1 P0006
Loading
Personal Weather Stations






























Interactive Weather Map New forecast layout! Learn more

10-Day Weather Forecast

Advertisements
Track Severe Weather on mobile